Omaha, Nebraska
Current Conditions -  °F | °C
As of 6:52 AM on Saturday 01 Nov 2014 (Local Time) from KOMA Reporting Station
Few Clouds Few Clouds  
Wind Chill: 18°   Ceiling: Unl
Heat Index: 29°   Visibility: 10mi
Dew Point: 19°   Wind: 14mph
Humidity: 67%   Direction: 150°SSE
Pressure: 30.43"   Gusts: NA
Location:  41.26°N, 95.94°W
Report Text: KOMA 011152Z 15012KT 10SM FEW250 M02/M07 A3043 RMK AO2 SLP313 T10171072 10000 21022 58009
Loading
Personal Weather Stations






























Interactive Weather Map New forecast layout! Learn more

10-Day Weather Forecast

Advertisements
Track Severe Weather on mobile